sensor_id;sensor_type;location;lat;lon;timestamp;P1;durP1;ratioP1;P2;durP2;ratioP2
21681;SDS011;11002;48.256;10.084;2023-08-21T00:00:43;3.25;;;2.95;;
21681;SDS011;11002;48.256;10.084;2023-08-21T00:03:10;3.90;;;3.42;;
21681;SDS011;11002;48.256;10.084;2023-08-21T00:05:37;5.45;;;3.60;;
21681;SDS011;11002;48.256;10.084;2023-08-21T00:08:05;6.85;;;3.67;;
21681;SDS011;11002;48.256;10.084;2023-08-21T00:10:32;4.28;;;3.38;;
21681;SDS011;11002;48.256;10.084;2023-08-21T00:13:01;4.82;;;3.63;;
21681;SDS011;11002;48.256;10.084;2023-08-21T00:15:28;6.00;;;3.30;;
21681;SDS011;11002;48.256;10.084;2023-08-21T00:17:55;4.72;;;3.63;;
21681;SDS011;11002;48.256;10.084;2023-08-21T00:20:22;4.03;;;3.63;;
21681;SDS011;11002;48.256;10.084;2023-08-21T00:22:50;3.28;;;2.97;;
21681;SDS011;11002;48.256;10.084;2023-08-21T00:25:17;4.30;;;3.83;;
21681;SDS011;11002;48.256;10.084;2023-08-21T00:27:44;6.03;;;4.13;;
21681;SDS011;11002;48.256;10.084;2023-08-21T00:30:13;5.00;;;3.38;;
21681;SDS011;11002;48.256;10.084;2023-08-21T00:32:41;3.85;;;3.50;;
21681;SDS011;11002;48.256;10.084;2023-08-21T00:35:08;5.53;;;3.75;;
21681;SDS011;11002;48.256;10.084;2023-08-21T00:37:36;6.22;;;3.53;;
21681;SDS011;11002;48.256;10.084;2023-08-21T00:40:04;6.13;;;4.22;;
21681;SDS011;11002;48.256;10.084;2023-08-21T00:42:32;6.63;;;3.78;;
21681;SDS011;11002;48.256;10.084;2023-08-21T00:44:59;4.22;;;3.60;;
21681;SDS011;11002;48.256;10.084;2023-08-21T00:47:28;5.15;;;3.53;;
21681;SDS011;11002;48.256;10.084;2023-08-21T00:49:56;4.55;;;4.05;;
21681;SDS011;11002;48.256;10.084;2023-08-21T00:52:23;4.05;;;3.53;;
21681;SDS011;11002;48.256;10.084;2023-08-21T00:54:51;4.38;;;3.90;;
21681;SDS011;11002;48.256;10.084;2023-08-21T00:57:18;4.90;;;3.90;;
21681;SDS011;11002;48.256;10.084;2023-08-21T00:59:46;7.22;;;3.97;;
21681;SDS011;11002;48.256;10.084;2023-08-21T01:02:14;5.57;;;4.18;;
21681;SDS011;11002;48.256;10.084;2023-08-21T01:04:43;4.07;;;3.67;;
21681;SDS011;11002;48.256;10.084;2023-08-21T01:07:13;3.85;;;3.40;;
21681;SDS011;11002;48.256;10.084;2023-08-21T01:09:42;5.32;;;3.78;;
21681;SDS011;11002;48.256;10.084;2023-08-21T01:12:21;4.72;;;3.72;;
21681;SDS011;11002;48.256;10.084;2023-08-21T01:14:54;6.20;;;4.07;;
21681;SDS011;11002;48.256;10.084;2023-08-21T01:17:25;6.90;;;4.18;;
21681;SDS011;11002;48.256;10.084;2023-08-21T01:19:54;4.35;;;3.72;;
21681;SDS011;11002;48.256;10.084;2023-08-21T01:22:25;4.22;;;3.17;;
21681;SDS011;11002;48.256;10.084;2023-08-21T01:24:54;4.90;;;3.70;;
21681;SDS011;11002;48.256;10.084;2023-08-21T01:27:21;3.53;;;3.20;;
21681;SDS011;11002;48.256;10.084;2023-08-21T01:29:49;5.18;;;3.50;;
21681;SDS011;11002;48.256;10.084;2023-08-21T01:32:20;6.05;;;3.65;;
21681;SDS011;11002;48.256;10.084;2023-08-21T01:34:53;4.30;;;3.90;;
21681;SDS011;11002;48.256;10.084;2023-08-21T01:37:22;4.85;;;3.65;;
21681;SDS011;11002;48.256;10.084;2023-08-21T01:39:50;4.93;;;4.10;;
21681;SDS011;11002;48.256;10.084;2023-08-21T01:42:20;6.28;;;3.65;;
21681;SDS011;11002;48.256;10.084;2023-08-21T01:44:47;5.22;;;3.78;;
21681;SDS011;11002;48.256;10.084;2023-08-21T01:47:14;10.55;;;4.00;;
21681;SDS011;11002;48.256;10.084;2023-08-21T01:49:42;7.03;;;3.83;;
21681;SDS011;11002;48.256;10.084;2023-08-21T01:52:09;4.65;;;3.60;;
21681;SDS011;11002;48.256;10.084;2023-08-21T01:54:36;4.65;;;3.50;;
21681;SDS011;11002;48.256;10.084;2023-08-21T01:57:04;6.03;;;3.55;;
21681;SDS011;11002;48.256;10.084;2023-08-21T01:59:32;5.97;;;3.80;;
21681;SDS011;11002;48.256;10.084;2023-08-21T02:02:00;4.55;;;3.90;;
21681;SDS011;11002;48.256;10.084;2023-08-21T02:04:27;6.25;;;3.88;;
21681;SDS011;11002;48.256;10.084;2023-08-21T02:06:54;3.90;;;3.50;;
21681;SDS011;11002;48.256;10.084;2023-08-21T02:09:21;4.90;;;3.60;;
21681;SDS011;11002;48.256;10.084;2023-08-21T02:11:49;4.40;;;3.97;;
21681;SDS011;11002;48.256;10.084;2023-08-21T02:14:16;5.82;;;3.97;;
21681;SDS011;11002;48.256;10.084;2023-08-21T02:16:45;4.72;;;3.67;;
21681;SDS011;11002;48.256;10.084;2023-08-21T02:19:13;6.15;;;3.25;;
21681;SDS011;11002;48.256;10.084;2023-08-21T02:21:40;5.35;;;3.75;;
21681;SDS011;11002;48.256;10.084;2023-08-21T02:24:07;7.18;;;3.80;;
21681;SDS011;11002;48.256;10.084;2023-08-21T02:26:34;5.03;;;4.13;;
21681;SDS011;11002;48.256;10.084;2023-08-21T02:29:02;5.40;;;3.58;;
21681;SDS011;11002;48.256;10.084;2023-08-21T02:31:30;4.43;;;3.88;;
21681;SDS011;11002;48.256;10.084;2023-08-21T02:33:58;4.78;;;3.97;;
21681;SDS011;11002;48.256;10.084;2023-08-21T02:36:25;6.18;;;3.92;;
21681;SDS011;11002;48.256;10.084;2023-08-21T02:38:53;4.28;;;3.88;;
21681;SDS011;11002;48.256;10.084;2023-08-21T02:41:21;6.45;;;3.78;;
21681;SDS011;11002;48.256;10.084;2023-08-21T02:43:49;5.93;;;3.55;;
21681;SDS011;11002;48.256;10.084;2023-08-21T02:46:17;6.10;;;3.65;;
21681;SDS011;11002;48.256;10.084;2023-08-21T02:48:44;4.30;;;3.28;;
21681;SDS011;11002;48.256;10.084;2023-08-21T02:51:12;4.32;;;3.58;;
21681;SDS011;11002;48.256;10.084;2023-08-21T02:53:40;3.75;;;3.30;;
21681;SDS011;11002;48.256;10.084;2023-08-21T02:56:07;11.25;;;4.00;;
21681;SDS011;11002;48.256;10.084;2023-08-21T02:58:34;4.82;;;3.60;;
21681;SDS011;11002;48.256;10.084;2023-08-21T03:01:01;4.10;;;3.67;;
21681;SDS011;11002;48.256;10.084;2023-08-21T03:03:29;4.15;;;3.58;;
21681;SDS011;11002;48.256;10.084;2023-08-21T03:05:58;4.97;;;3.55;;
21681;SDS011;11002;48.256;10.084;2023-08-21T03:08:26;5.68;;;3.67;;
21681;SDS011;11002;48.256;10.084;2023-08-21T03:10:53;6.25;;;4.03;;
21681;SDS011;11002;48.256;10.084;2023-08-21T03:13:21;4.18;;;3.70;;
21681;SDS011;11002;48.256;10.084;2023-08-21T03:15:48;5.32;;;3.67;;
21681;SDS011;11002;48.256;10.084;2023-08-21T03:18:16;5.57;;;3.80;;
21681;SDS011;11002;48.256;10.084;2023-08-21T03:20:44;4.18;;;3.65;;
21681;SDS011;11002;48.256;10.084;2023-08-21T03:23:12;5.30;;;3.65;;
21681;SDS011;11002;48.256;10.084;2023-08-21T03:25:41;4.38;;;3.15;;
21681;SDS011;11002;48.256;10.084;2023-08-21T03:28:08;4.75;;;3.90;;
21681;SDS011;11002;48.256;10.084;2023-08-21T03:30:38;4.25;;;3.60;;
21681;SDS011;11002;48.256;10.084;2023-08-21T03:33:05;5.00;;;4.03;;
21681;SDS011;11002;48.256;10.084;2023-08-21T03:35:34;5.15;;;3.40;;
21681;SDS011;11002;48.256;10.084;2023-08-21T03:38:01;5.75;;;3.35;;
21681;SDS011;11002;48.256;10.084;2023-08-21T03:40:34;4.85;;;3.83;;
21681;SDS011;11002;48.256;10.084;2023-08-21T03:43:03;4.32;;;3.47;;
21681;SDS011;11002;48.256;10.084;2023-08-21T03:45:30;3.92;;;3.47;;
21681;SDS011;11002;48.256;10.084;2023-08-21T03:47:57;5.03;;;3.35;;
21681;SDS011;11002;48.256;10.084;2023-08-21T03:50:24;5.38;;;3.63;;
21681;SDS011;11002;48.256;10.084;2023-08-21T03:52:51;4.35;;;3.30;;
21681;SDS011;11002;48.256;10.084;2023-08-21T03:55:19;3.13;;;2.83;;
21681;SDS011;11002;48.256;10.084;2023-08-21T03:57:46;6.72;;;4.20;;
21681;SDS011;11002;48.256;10.084;2023-08-21T04:00:15;7.07;;;4.43;;
21681;SDS011;11002;48.256;10.084;2023-08-21T04:02:42;4.38;;;3.15;;
21681;SDS011;11002;48.256;10.084;2023-08-21T04:05:09;6.07;;;3.85;;
21681;SDS011;11002;48.256;10.084;2023-08-21T04:07:37;4.88;;;3.63;;
21681;SDS011;11002;48.256;10.084;2023-08-21T04:10:05;7.25;;;3.78;;
21681;SDS011;11002;48.256;10.084;2023-08-21T04:12:33;4.05;;;3.65;;
21681;SDS011;11002;48.256;10.084;2023-08-21T04:15:00;4.68;;;4.13;;
21681;SDS011;11002;48.256;10.084;2023-08-21T04:17:30;7.78;;;4.13;;
21681;SDS011;11002;48.256;10.084;2023-08-21T04:19:58;8.40;;;4.80;;
21681;SDS011;11002;48.256;10.084;2023-08-21T04:22:25;5.68;;;4.05;;
21681;SDS011;11002;48.256;10.084;2023-08-21T04:24:52;6.88;;;4.82;;
21681;SDS011;11002;48.256;10.084;2023-08-21T04:27:20;9.23;;;4.72;;
21681;SDS011;11002;48.256;10.084;2023-08-21T04:29:47;5.70;;;5.07;;
21681;SDS011;11002;48.256;10.084;2023-08-21T04:32:14;7.07;;;5.70;;
21681;SDS011;11002;48.256;10.084;2023-08-21T04:34:45;5.45;;;4.55;;
21681;SDS011;11002;48.256;10.084;2023-08-21T04:37:12;7.22;;;4.50;;
21681;SDS011;11002;48.256;10.084;2023-08-21T04:39:39;7.25;;;4.10;;
21681;SDS011;11002;48.256;10.084;2023-08-21T04:42:07;5.93;;;4.53;;
21681;SDS011;11002;48.256;10.084;2023-08-21T04:44:36;6.43;;;4.35;;
21681;SDS011;11002;48.256;10.084;2023-08-21T04:47:18;6.35;;;4.47;;
21681;SDS011;11002;48.256;10.084;2023-08-21T04:49:49;6.05;;;4.30;;
21681;SDS011;11002;48.256;10.084;2023-08-21T04:52:17;5.55;;;3.88;;
21681;SDS011;11002;48.256;10.084;2023-08-21T04:54:46;6.78;;;4.20;;
21681;SDS011;11002;48.256;10.084;2023-08-21T04:57:14;5.63;;;4.00;;
21681;SDS011;11002;48.256;10.084;2023-08-21T04:59:43;5.82;;;4.38;;
21681;SDS011;11002;48.256;10.084;2023-08-21T05:02:10;5.35;;;4.82;;
21681;SDS011;11002;48.256;10.084;2023-08-21T05:04:38;9.30;;;5.88;;
21681;SDS011;11002;48.256;10.084;2023-08-21T05:07:09;7.47;;;4.88;;
21681;SDS011;11002;48.256;10.084;2023-08-21T05:09:36;9.10;;;4.82;;
21681;SDS011;11002;48.256;10.084;2023-08-21T05:12:05;9.38;;;5.00;;
21681;SDS011;11002;48.256;10.084;2023-08-21T05:14:32;8.15;;;4.85;;
21681;SDS011;11002;48.256;10.084;2023-08-21T05:17:00;7.13;;;4.65;;
21681;SDS011;11002;48.256;10.084;2023-08-21T05:19:27;4.63;;;4.20;;
21681;SDS011;11002;48.256;10.084;2023-08-21T05:21:55;8.63;;;4.68;;
21681;SDS011;11002;48.256;10.084;2023-08-21T05:24:24;6.00;;;5.40;;
21681;SDS011;11002;48.256;10.084;2023-08-21T05:26:59;5.90;;;5.30;;
21681;SDS011;11002;48.256;10.084;2023-08-21T05:29:27;5.95;;;5.20;;
21681;SDS011;11002;48.256;10.084;2023-08-21T05:31:56;7.55;;;4.65;;
21681;SDS011;11002;48.256;10.084;2023-08-21T05:34:23;8.52;;;5.72;;
21681;SDS011;11002;48.256;10.084;2023-08-21T05:36:51;6.50;;;5.28;;
21681;SDS011;11002;48.256;10.084;2023-08-21T05:39:20;6.22;;;5.00;;
21681;SDS011;11002;48.256;10.084;2023-08-21T05:41:50;5.20;;;4.65;;
21681;SDS011;11002;48.256;10.084;2023-08-21T05:44:18;6.75;;;5.28;;
21681;SDS011;11002;48.256;10.084;2023-08-21T05:46:46;6.18;;;5.13;;
21681;SDS011;11002;48.256;10.084;2023-08-21T05:49:13;6.93;;;4.90;;
21681;SDS011;11002;48.256;10.084;2023-08-21T05:51:40;6.28;;;5.10;;
21681;SDS011;11002;48.256;10.084;2023-08-21T05:54:07;7.75;;;5.68;;
21681;SDS011;11002;48.256;10.084;2023-08-21T05:56:37;10.43;;;5.38;;
21681;SDS011;11002;48.256;10.084;2023-08-21T05:59:09;9.82;;;5.63;;
21681;SDS011;11002;48.256;10.084;2023-08-21T06:01:37;7.15;;;5.82;;
21681;SDS011;11002;48.256;10.084;2023-08-21T06:04:04;6.45;;;5.50;;
21681;SDS011;11002;48.256;10.084;2023-08-21T06:06:39;5.15;;;4.65;;
21681;SDS011;11002;48.256;10.084;2023-08-21T06:09:07;8.10;;;6.30;;
21681;SDS011;11002;48.256;10.084;2023-08-21T06:11:35;9.25;;;5.35;;
21681;SDS011;11002;48.256;10.084;2023-08-21T06:14:04;7.40;;;5.40;;
21681;SDS011;11002;48.256;10.084;2023-08-21T06:16:33;5.53;;;4.88;;
21681;SDS011;11002;48.256;10.084;2023-08-21T06:19:00;5.80;;;5.05;;
21681;SDS011;11002;48.256;10.084;2023-08-21T06:21:28;6.82;;;5.65;;
21681;SDS011;11002;48.256;10.084;2023-08-21T06:23:55;5.60;;;4.70;;
21681;SDS011;11002;48.256;10.084;2023-08-21T06:26:22;7.15;;;5.35;;
21681;SDS011;11002;48.256;10.084;2023-08-21T06:28:51;9.00;;;5.53;;
21681;SDS011;11002;48.256;10.084;2023-08-21T06:31:19;7.30;;;5.00;;
21681;SDS011;11002;48.256;10.084;2023-08-21T06:33:47;5.53;;;4.53;;
21681;SDS011;11002;48.256;10.084;2023-08-21T06:36:14;7.60;;;6.00;;
21681;SDS011;11002;48.256;10.084;2023-08-21T06:38:41;7.20;;;5.65;;
21681;SDS011;11002;48.256;10.084;2023-08-21T06:41:09;5.93;;;5.32;;
21681;SDS011;11002;48.256;10.084;2023-08-21T06:43:37;8.65;;;5.30;;
21681;SDS011;11002;48.256;10.084;2023-08-21T06:46:04;6.35;;;5.45;;
21681;SDS011;11002;48.256;10.084;2023-08-21T06:48:33;5.90;;;5.20;;
21681;SDS011;11002;48.256;10.084;2023-08-21T06:51:01;6.85;;;4.82;;
21681;SDS011;11002;48.256;10.084;2023-08-21T06:53:29;7.38;;;5.03;;
21681;SDS011;11002;48.256;10.084;2023-08-21T06:55:56;6.38;;;4.68;;
21681;SDS011;11002;48.256;10.084;2023-08-21T06:58:23;9.15;;;5.65;;
21681;SDS011;11002;48.256;10.084;2023-08-21T07:00:52;6.65;;;4.68;;
21681;SDS011;11002;48.256;10.084;2023-08-21T07:03:21;6.18;;;4.90;;
21681;SDS011;11002;48.256;10.084;2023-08-21T07:05:54;8.35;;;5.53;;
21681;SDS011;11002;48.256;10.084;2023-08-21T07:08:22;12.25;;;5.90;;
21681;SDS011;11002;48.256;10.084;2023-08-21T07:10:50;5.90;;;4.80;;
21681;SDS011;11002;48.256;10.084;2023-08-21T07:13:17;6.40;;;4.82;;
21681;SDS011;11002;48.256;10.084;2023-08-21T07:15:45;8.52;;;4.85;;
21681;SDS011;11002;48.256;10.084;2023-08-21T07:18:12;6.18;;;5.60;;
21681;SDS011;11002;48.256;10.084;2023-08-21T07:20:40;5.03;;;4.47;;
21681;SDS011;11002;48.256;10.084;2023-08-21T07:23:08;5.93;;;4.72;;
21681;SDS011;11002;48.256;10.084;2023-08-21T07:25:35;5.97;;;4.95;;
21681;SDS011;11002;48.256;10.084;2023-08-21T07:28:03;5.28;;;4.40;;
21681;SDS011;11002;48.256;10.084;2023-08-21T07:30:31;4.90;;;4.40;;
21681;SDS011;11002;48.256;10.084;2023-08-21T07:32:58;7.88;;;4.80;;
21681;SDS011;11002;48.256;10.084;2023-08-21T07:35:25;5.55;;;5.00;;
21681;SDS011;11002;48.256;10.084;2023-08-21T07:37:52;7.07;;;5.00;;
21681;SDS011;11002;48.256;10.084;2023-08-21T07:40:21;6.50;;;4.75;;
21681;SDS011;11002;48.256;10.084;2023-08-21T07:42:49;6.03;;;5.18;;
21681;SDS011;11002;48.256;10.084;2023-08-21T07:45:16;7.45;;;5.82;;
21681;SDS011;11002;48.256;10.084;2023-08-21T07:47:43;8.13;;;5.35;;
21681;SDS011;11002;48.256;10.084;2023-08-21T07:50:10;5.93;;;5.05;;
21681;SDS011;11002;48.256;10.084;2023-08-21T07:52:39;6.15;;;4.75;;
21681;SDS011;11002;48.256;10.084;2023-08-21T07:55:07;6.53;;;4.70;;
21681;SDS011;11002;48.256;10.084;2023-08-21T07:57:36;6.10;;;5.25;;
21681;SDS011;11002;48.256;10.084;2023-08-21T08:00:04;6.07;;;5.03;;
21681;SDS011;11002;48.256;10.084;2023-08-21T08:02:38;5.70;;;4.80;;
21681;SDS011;11002;48.256;10.084;2023-08-21T08:05:06;8.10;;;5.80;;
21681;SDS011;11002;48.256;10.084;2023-08-21T08:07:34;5.90;;;4.82;;
21681;SDS011;11002;48.256;10.084;2023-08-21T08:10:01;5.55;;;4.90;;
21681;SDS011;11002;48.256;10.084;2023-08-21T08:12:29;7.00;;;5.00;;
21681;SDS011;11002;48.256;10.084;2023-08-21T08:14:59;7.22;;;5.97;;
21681;SDS011;11002;48.256;10.084;2023-08-21T08:17:27;7.85;;;6.10;;
21681;SDS011;11002;48.256;10.084;2023-08-21T08:19:54;9.15;;;5.95;;
21681;SDS011;11002;48.256;10.084;2023-08-21T08:22:22;8.00;;;5.82;;
21681;SDS011;11002;48.256;10.084;2023-08-21T08:24:49;6.50;;;5.88;;
21681;SDS011;11002;48.256;10.084;2023-08-21T08:27:16;8.95;;;6.85;;
21681;SDS011;11002;48.256;10.084;2023-08-21T08:29:43;7.35;;;5.13;;
21681;SDS011;11002;48.256;10.084;2023-08-21T08:32:12;8.88;;;5.80;;
21681;SDS011;11002;48.256;10.084;2023-08-21T08:34:39;11.02;;;5.78;;
21681;SDS011;11002;48.256;10.084;2023-08-21T08:37:06;7.13;;;5.55;;
21681;SDS011;11002;48.256;10.084;2023-08-21T08:39:34;6.35;;;5.28;;
21681;SDS011;11002;48.256;10.084;2023-08-21T08:42:02;7.95;;;5.53;;
21681;SDS011;11002;48.256;10.084;2023-08-21T08:44:32;6.55;;;5.28;;
21681;SDS011;11002;48.256;10.084;2023-08-21T08:47:02;6.47;;;5.38;;
21681;SDS011;11002;48.256;10.084;2023-08-21T08:49:31;6.43;;;5.10;;
21681;SDS011;11002;48.256;10.084;2023-08-21T08:51:59;7.07;;;5.32;;
21681;SDS011;11002;48.256;10.084;2023-08-21T08:54:26;6.85;;;5.53;;
21681;SDS011;11002;48.256;10.084;2023-08-21T08:56:56;7.38;;;4.82;;
21681;SDS011;11002;48.256;10.084;2023-08-21T08:59:24;6.30;;;4.82;;
21681;SDS011;11002;48.256;10.084;2023-08-21T09:01:51;7.90;;;5.00;;
21681;SDS011;11002;48.256;10.084;2023-08-21T09:04:18;6.18;;;4.72;;
21681;SDS011;11002;48.256;10.084;2023-08-21T09:06:49;4.32;;;3.92;;
21681;SDS011;11002;48.256;10.084;2023-08-21T09:09:16;5.63;;;3.95;;
21681;SDS011;11002;48.256;10.084;2023-08-21T09:11:43;6.43;;;4.20;;
21681;SDS011;11002;48.256;10.084;2023-08-21T09:14:12;4.88;;;4.25;;
21681;SDS011;11002;48.256;10.084;2023-08-21T09:16:56;4.43;;;3.92;;
21681;SDS011;11002;48.256;10.084;2023-08-21T09:19:26;4.93;;;4.20;;
21681;SDS011;11002;48.256;10.084;2023-08-21T09:21:54;3.85;;;3.45;;
21681;SDS011;11002;48.256;10.084;2023-08-21T09:24:22;3.83;;;3.42;;
21681;SDS011;11002;48.256;10.084;2023-08-21T09:26:49;3.30;;;3.00;;
21681;SDS011;11002;48.256;10.084;2023-08-21T09:29:17;4.20;;;3.30;;
21681;SDS011;11002;48.256;10.084;2023-08-21T09:31:44;4.28;;;3.05;;
21681;SDS011;11002;48.256;10.084;2023-08-21T09:34:12;3.35;;;3.05;;
21681;SDS011;11002;48.256;10.084;2023-08-21T09:36:40;3.20;;;2.90;;
21681;SDS011;11002;48.256;10.084;2023-08-21T09:39:08;2.90;;;2.70;;
21681;SDS011;11002;48.256;10.084;2023-08-21T09:41:46;3.13;;;2.28;;
21681;SDS011;11002;48.256;10.084;2023-08-21T09:44:21;3.03;;;2.40;;
21681;SDS011;11002;48.256;10.084;2023-08-21T09:46:49;2.88;;;2.67;;
21681;SDS011;11002;48.256;10.084;2023-08-21T09:49:16;3.80;;;3.13;;
21681;SDS011;11002;48.256;10.084;2023-08-21T09:51:45;3.28;;;2.97;;
21681;SDS011;11002;48.256;10.084;2023-08-21T09:54:14;2.92;;;2.72;;
21681;SDS011;11002;48.256;10.084;2023-08-21T09:56:42;2.92;;;2.72;;
21681;SDS011;11002;48.256;10.084;2023-08-21T09:59:09;4.65;;;2.85;;
21681;SDS011;11002;48.256;10.084;2023-08-21T10:01:38;3.78;;;3.38;;
21681;SDS011;11002;48.256;10.084;2023-08-21T10:04:06;3.17;;;2.95;;
21681;SDS011;11002;48.256;10.084;2023-08-21T10:06:36;6.00;;;3.22;;
21681;SDS011;11002;48.256;10.084;2023-08-21T10:09:05;4.38;;;2.70;;
21681;SDS011;11002;48.256;10.084;2023-08-21T10:11:35;2.95;;;2.40;;
21681;SDS011;11002;48.256;10.084;2023-08-21T10:14:03;3.35;;;3.00;;
21681;SDS011;11002;48.256;10.084;2023-08-21T10:16:30;3.13;;;2.63;;
21681;SDS011;11002;48.256;10.084;2023-08-21T10:19:01;3.30;;;2.75;;
21681;SDS011;11002;48.256;10.084;2023-08-21T10:21:33;3.75;;;2.70;;
21681;SDS011;11002;48.256;10.084;2023-08-21T10:24:02;2.47;;;2.10;;
21681;SDS011;11002;48.256;10.084;2023-08-21T10:26:30;3.03;;;2.60;;
21681;SDS011;11002;48.256;10.084;2023-08-21T10:29:00;2.58;;;2.38;;
21681;SDS011;11002;48.256;10.084;2023-08-21T10:31:33;2.78;;;2.47;;
21681;SDS011;11002;48.256;10.084;2023-08-21T10:34:02;2.75;;;2.55;;
21681;SDS011;11002;48.256;10.084;2023-08-21T10:36:40;3.13;;;2.83;;
21681;SDS011;11002;48.256;10.084;2023-08-21T10:39:33;3.35;;;2.78;;
21681;SDS011;11002;48.256;10.084;2023-08-21T10:42:04;2.92;;;2.67;;
21681;SDS011;11002;48.256;10.084;2023-08-21T10:44:35;5.35;;;2.55;;
21681;SDS011;11002;48.256;10.084;2023-08-21T10:47:30;3.70;;;2.83;;
21681;SDS011;11002;48.256;10.084;2023-08-21T10:49:59;3.55;;;2.50;;
21681;SDS011;11002;48.256;10.084;2023-08-21T10:52:27;2.95;;;2.65;;
21681;SDS011;11002;48.256;10.084;2023-08-21T10:54:56;2.90;;;2.70;;
21681;SDS011;11002;48.256;10.084;2023-08-21T10:57:24;3.58;;;2.95;;
21681;SDS011;11002;48.256;10.084;2023-08-21T10:59:54;5.82;;;2.80;;
21681;SDS011;11002;48.256;10.084;2023-08-21T11:02:23;3.67;;;2.60;;
21681;SDS011;11002;48.256;10.084;2023-08-21T11:04:51;3.10;;;2.80;;
21681;SDS011;11002;48.256;10.084;2023-08-21T11:07:19;4.15;;;2.92;;
21681;SDS011;11002;48.256;10.084;2023-08-21T11:09:46;2.90;;;2.70;;
21681;SDS011;11002;48.256;10.084;2023-08-21T11:12:15;2.60;;;2.40;;
21681;SDS011;11002;48.256;10.084;2023-08-21T11:14:43;4.10;;;2.72;;
21681;SDS011;11002;48.256;10.084;2023-08-21T11:17:12;5.72;;;3.28;;
21681;SDS011;11002;48.256;10.084;2023-08-21T11:19:40;3.33;;;2.92;;
21681;SDS011;11002;48.256;10.084;2023-08-21T11:22:08;2.97;;;2.70;;
21681;SDS011;11002;48.256;10.084;2023-08-21T11:24:38;2.88;;;2.65;;
21681;SDS011;11002;48.256;10.084;2023-08-21T11:27:08;3.20;;;2.90;;
21681;SDS011;11002;48.256;10.084;2023-08-21T11:29:37;3.90;;;2.97;;
21681;SDS011;11002;48.256;10.084;2023-08-21T11:32:09;2.97;;;2.78;;
21681;SDS011;11002;48.256;10.084;2023-08-21T11:34:39;2.97;;;2.78;;
21681;SDS011;11002;48.256;10.084;2023-08-21T11:37:07;3.20;;;2.90;;
21681;SDS011;11002;48.256;10.084;2023-08-21T11:39:39;4.97;;;3.20;;
21681;SDS011;11002;48.256;10.084;2023-08-21T11:42:11;3.55;;;3.25;;
21681;SDS011;11002;48.256;10.084;2023-08-21T11:44:39;3.55;;;3.25;;
21681;SDS011;11002;48.256;10.084;2023-08-21T11:47:11;3.85;;;3.13;;
21681;SDS011;11002;48.256;10.084;2023-08-21T11:49:41;3.63;;;2.75;;
21681;SDS011;11002;48.256;10.084;2023-08-21T11:52:09;4.28;;;3.25;;
21681;SDS011;11002;48.256;10.084;2023-08-21T11:54:37;3.70;;;3.08;;
21681;SDS011;11002;48.256;10.084;2023-08-21T11:57:06;3.00;;;2.80;;
21681;SDS011;11002;48.256;10.084;2023-08-21T11:59:35;3.83;;;2.95;;
21681;SDS011;11002;48.256;10.084;2023-08-21T12:02:13;3.15;;;2.90;;
21681;SDS011;11002;48.256;10.084;2023-08-21T12:04:42;3.30;;;3.00;;
21681;SDS011;11002;48.256;10.084;2023-08-21T12:07:10;3.42;;;2.58;;
21681;SDS011;11002;48.256;10.084;2023-08-21T12:09:38;3.47;;;3.08;;
21681;SDS011;11002;48.256;10.084;2023-08-21T12:12:06;2.90;;;2.67;;
21681;SDS011;11002;48.256;10.084;2023-08-21T12:14:34;4.60;;;2.60;;
21681;SDS011;11002;48.256;10.084;2023-08-21T12:17:04;3.33;;;2.70;;
21681;SDS011;11002;48.256;10.084;2023-08-21T12:19:32;2.85;;;2.47;;
21681;SDS011;11002;48.256;10.084;2023-08-21T12:22:01;2.65;;;2.45;;
21681;SDS011;11002;48.256;10.084;2023-08-21T12:24:28;3.55;;;2.90;;
21681;SDS011;11002;48.256;10.084;2023-08-21T12:26:56;2.60;;;2.40;;
21681;SDS011;11002;48.256;10.084;2023-08-21T12:29:23;2.70;;;2.45;;
21681;SDS011;11002;48.256;10.084;2023-08-21T12:31:50;2.50;;;2.30;;
21681;SDS011;11002;48.256;10.084;2023-08-21T12:34:18;2.85;;;2.25;;
21681;SDS011;11002;48.256;10.084;2023-08-21T12:36:45;2.47;;;2.28;;
21681;SDS011;11002;48.256;10.084;2023-08-21T12:39:14;2.90;;;2.60;;
21681;SDS011;11002;48.256;10.084;2023-08-21T12:41:41;2.90;;;2.60;;
21681;SDS011;11002;48.256;10.084;2023-08-21T12:44:08;2.80;;;2.60;;
21681;SDS011;11002;48.256;10.084;2023-08-21T12:46:36;2.85;;;2.65;;
21681;SDS011;11002;48.256;10.084;2023-08-21T12:49:03;2.80;;;2.60;;
21681;SDS011;11002;48.256;10.084;2023-08-21T12:51:30;2.70;;;2.50;;
21681;SDS011;11002;48.256;10.084;2023-08-21T12:53:58;3.05;;;2.78;;
21681;SDS011;11002;48.256;10.084;2023-08-21T12:56:26;3.55;;;2.50;;
21681;SDS011;11002;48.256;10.084;2023-08-21T12:58:53;3.25;;;2.45;;
21681;SDS011;11002;48.256;10.084;2023-08-21T13:01:21;2.92;;;2.63;;
21681;SDS011;11002;48.256;10.084;2023-08-21T13:03:48;2.63;;;2.33;;
21681;SDS011;11002;48.256;10.084;2023-08-21T13:06:15;4.03;;;2.40;;
21681;SDS011;11002;48.256;10.084;2023-08-21T13:08:43;2.45;;;2.25;;
21681;SDS011;11002;48.256;10.084;2023-08-21T13:11:10;3.00;;;2.47;;
21681;SDS011;11002;48.256;10.084;2023-08-21T13:13:38;3.25;;;2.88;;
21681;SDS011;11002;48.256;10.084;2023-08-21T13:16:06;3.13;;;2.65;;
21681;SDS011;11002;48.256;10.084;2023-08-21T13:18:33;2.35;;;2.15;;
21681;SDS011;11002;48.256;10.084;2023-08-21T13:21:00;2.50;;;2.30;;
21681;SDS011;11002;48.256;10.084;2023-08-21T13:23:28;2.38;;;2.17;;
21681;SDS011;11002;48.256;10.084;2023-08-21T13:25:56;2.30;;;2.10;;
21681;SDS011;11002;48.256;10.084;2023-08-21T13:28:24;2.85;;;2.35;;
21681;SDS011;11002;48.256;10.084;2023-08-21T13:30:52;5.60;;;2.17;;
21681;SDS011;11002;48.256;10.084;2023-08-21T13:33:20;3.58;;;2.35;;
21681;SDS011;11002;48.256;10.084;2023-08-21T13:35:47;2.25;;;2.05;;
21681;SDS011;11002;48.256;10.084;2023-08-21T13:38:14;3.90;;;2.47;;
21681;SDS011;11002;48.256;10.084;2023-08-21T13:40:42;2.80;;;2.28;;
21681;SDS011;11002;48.256;10.084;2023-08-21T13:43:10;3.40;;;2.25;;
21681;SDS011;11002;48.256;10.084;2023-08-21T13:45:37;2.70;;;2.50;;
21681;SDS011;11002;48.256;10.084;2023-08-21T13:48:07;3.03;;;2.30;;
21681;SDS011;11002;48.256;10.084;2023-08-21T13:50:34;2.47;;;2.22;;
21681;SDS011;11002;48.256;10.084;2023-08-21T13:53:01;2.45;;;2.25;;
21681;SDS011;11002;48.256;10.084;2023-08-21T13:55:29;3.85;;;2.67;;
21681;SDS011;11002;48.256;10.084;2023-08-21T13:57:56;2.58;;;2.38;;
21681;SDS011;11002;48.256;10.084;2023-08-21T14:00:23;2.47;;;2.28;;
21681;SDS011;11002;48.256;10.084;2023-08-21T14:02:51;2.78;;;2.30;;
21681;SDS011;11002;48.256;10.084;2023-08-21T14:05:19;4.68;;;2.95;;
21681;SDS011;11002;48.256;10.084;2023-08-21T14:07:47;2.78;;;2.25;;
21681;SDS011;11002;48.256;10.084;2023-08-21T14:10:14;2.75;;;2.25;;
21681;SDS011;11002;48.256;10.084;2023-08-21T14:12:42;3.15;;;2.53;;
21681;SDS011;11002;48.256;10.084;2023-08-21T14:15:09;3.17;;;2.83;;
21681;SDS011;11002;48.256;10.084;2023-08-21T14:17:37;2.67;;;2.35;;
21681;SDS011;11002;48.256;10.084;2023-08-21T14:20:05;4.45;;;2.63;;
21681;SDS011;11002;48.256;10.084;2023-08-21T14:22:35;4.32;;;2.28;;
21681;SDS011;11002;48.256;10.084;2023-08-21T14:25:02;3.30;;;2.28;;
21681;SDS011;11002;48.256;10.084;2023-08-21T14:27:31;3.47;;;2.30;;
21681;SDS011;11002;48.256;10.084;2023-08-21T14:29:58;3.60;;;2.90;;
21681;SDS011;11002;48.256;10.084;2023-08-21T14:32:26;3.20;;;2.90;;
21681;SDS011;11002;48.256;10.084;2023-08-21T14:34:53;4.15;;;2.53;;
21681;SDS011;11002;48.256;10.084;2023-08-21T14:37:21;2.90;;;2.60;;
21681;SDS011;11002;48.256;10.084;2023-08-21T14:39:50;4.40;;;2.70;;